Terminal Aerodrome Forecast
Issued by NWS Charleston, WV

Current Version | Previous Version | Graphics & Text | Print | Product List | Glossary On
Versions: 1 2 3 4 5 6 7 8 9 10 11 12 13 14 15 16 17 18 19 20 21 22 23
000
FTUS41 KRLX 292100 AAA
TAFHTS
TAF AMD
KHTS 292100Z 2921/3018 VRB04KT P6SM SCT040
     FM300700 00000KT 6SM BR FEW035
     FM300900 00000KT 3SM BR FEW250
     FM301000 00000KT 1SM BR SCT250
     FM301400 00000KT 6SM BR SCT250=

USA.gov is the U.S. government's official web portal to all federal, state and local government web resources and services.